Portada
METAR-TAF:

METAR-TAF

Aeropuertos :

El Cairo, Egipto

Aeropuerto Internacional de El Cairo

latitud: 30-08N, longitud: 031-24E, altitud: 64 m

Observación

El informe se hizo hace 23 minutos, a las 04:00 UTC
Viento 8 kt del noreste
Temperatura 18°C
Humedad 77%
Presión 1015 hPa
Visibilidad: 6000 m

METAR: HECA 280400Z 04008KT 6000 NSC 18/14 Q1015 NOSIG

Hora: 06:23 (04:23 UTC)

Pronóstico

El informe se hizo hace 5 horas y 23 minutos, a las 23:00 UTC
Pronóstico válido del 28 a las 00 UTC al 29 a las 06 UTC
Viento 10 kt del norte-noreste
Visibilidad 10 km o más
sin nubes por debajo de 1500 m y sin presencia de cumulonimbus.

TAF: HECA 272300Z 2800/2906 03010KT CAVOK

Observaciones y pronósticos meteorológicos de más de 4000 aeropuertos (mensajes METAR y TAF).

Los puntos amarillos y rojos representan las estaciones disponibles.

Ponga el ratón en el punto deseado para ver el nombre de la estación.

Haga clic para ver las observaciones y los pronósticos meteorológicos.

Para cambiar el mapa : haga clic en los botones verdes con una cruz de color negro para hacer un zoom, en el botón verde con un guión para alejar o en las flechas verdes para mapas adyacentes.


METAR-TAF: